Detall de PIREP

Printer-friendly versionPDF version

[2013/08/18 10:28:00]
Flight IATA:CT3112
Pilot Number:012
Company ICAO:CAT
Aircraft Type:DC3/A
PAX:0
Aircraft Registration:CARGO
Departing Airport: LEBL
Destination Airport: LFMP
Alternate Airport:LFBO
Online: VATSIM
Route:DALIN A67 BEXUR A27 KANIG
Flight Level:F100
No Slew and time accel
No pause
Crash detect
Detect pilot in Cockpit between each 30 and 45 minutes
10:28 Zero fuel Weight: 20226 Lbs, Fuel Weight: 2422 Lbs
10:28 VATSIM:LEBL 181000Z 19007KT 150V240 9999 FEW033 27/21 Q1018 NOSIG
10:28 VATSIM:LFMP 181000Z 13004KT 050V180 9999 FEW040 30/15 Q1017 NOSIG
10:28 VOICE CATALONIAN
10:35 Parking Brakes off
10:42 Take-off
10:42 Take off Weight: 22615 Lbs
10:42 Wind: 198º @ 007 Knots Heading: 245º
10:42 POS N41º 17´ 18´´ E002º 05´ 30´´
10:42 Gear Up: 096 Knots
10:42 Flaps:1 at 96 Knots
10:42 Flaps:0 at 99 Knots
10:55 TOC
10:55 Fuel Weight: 2215 Lb
10:57 Wind:261º@003 Knots Heading: 140º Ground Speed: 162 Knots Altitude 10173 ft
11:12 Wind:261º@003 Knots Heading: 028º Ground Speed: 160 Knots Altitude 10180 ft
11:27 Wind:250º@004 Knots Heading: 064º Ground Speed: 163 Knots Altitude 10141 ft
11:42 Wind:250º@003 Knots Heading: 345º Ground Speed: 159 Knots Altitude 10164 ft
11:43 TOD
11:43 Fuel Weight: 1737 Lb
11:57 Wind:178º@010 Knots Heading: 332º Ground Speed: 156 Knots Altitude 4035 ft
12:01 Flaps:1 at 119 Knots
12:01 Flaps:2 at 99 Knots
12:02 Gear Down: 93 Knots
12:03 Flaps:3 at 88 Knots
12:04 Flaps:4 at 74 Knots
12:05 TouchDown:Rate -234 ft/min Speed: 65 Knots
12:05 Flaps:2 at 34 Knots
12:05 VATSIM:LFMP 181130Z 10009KT 070V140 9999 FEW040 30/14 Q1017 NOSIG
12:06 Land
12:06 Wind:100º@009 Knots
12:06 Heading: 147º
12:06 Flight Duration: 01:24
12:06 Landing Weight: 21773 Lbs
12:06 POS N42º 44´ 55´´ E002º 51´ 58´´
12:08 Parking brakes on
12:08 Block to Block Duration: 01:33
12:08 Final Fuel: 1536 Lbls
12:08 Spent Fuel: 886 Lbls
12:08 Flight Length: 210 NM
12:08 TOD Land Length: 56 NM

Exportar CSV

Powered by Drupal - Modified by Danger4k